sensor_id;sensor_type;location;lat;lon;timestamp;pressure;altitude;pressure_sealevel;temperature
65316;BMP280;51920;53.952;10.292;2022-10-16T00:00:41;100414.31;;;13.39
65316;BMP280;51920;53.952;10.292;2022-10-16T00:03:08;100439.13;;;13.44
65316;BMP280;51920;53.952;10.292;2022-10-16T00:05:38;100440.69;;;13.45
65316;BMP280;51920;53.952;10.292;2022-10-16T00:08:04;100428.25;;;13.44
65316;BMP280;51920;53.952;10.292;2022-10-16T00:10:30;100436.03;;;13.42
65316;BMP280;51920;53.952;10.292;2022-10-16T00:12:55;100439.16;;;13.41
65316;BMP280;51920;53.952;10.292;2022-10-16T00:15:20;100445.03;;;13.39
65316;BMP280;51920;53.952;10.292;2022-10-16T00:17:46;100444.25;;;13.35
65316;BMP280;51920;53.952;10.292;2022-10-16T00:20:11;100433.81;;;13.34
65316;BMP280;51920;53.952;10.292;2022-10-16T00:22:37;100436.91;;;13.32
65316;BMP280;51920;53.952;10.292;2022-10-16T00:25:02;100431.88;;;13.34
65316;BMP280;51920;53.952;10.292;2022-10-16T00:27:28;100440.06;;;13.30
65316;BMP280;51920;53.952;10.292;2022-10-16T00:29:53;100448.63;;;13.29
65316;BMP280;51920;53.952;10.292;2022-10-16T00:32:19;100442.78;;;13.30
65316;BMP280;51920;53.952;10.292;2022-10-16T00:34:45;100447.09;;;13.28
65316;BMP280;51920;53.952;10.292;2022-10-16T00:37:11;100450.94;;;13.30
65316;BMP280;51920;53.952;10.292;2022-10-16T00:39:36;100445.56;;;13.27
65316;BMP280;51920;53.952;10.292;2022-10-16T00:42:02;100445.56;;;13.23
65316;BMP280;51920;53.952;10.292;2022-10-16T00:45:00;100452.94;;;13.23
65316;BMP280;51920;53.952;10.292;2022-10-16T00:47:39;100448.72;;;13.22
65316;BMP280;51920;53.952;10.292;2022-10-16T00:50:28;100461.94;;;13.20
65316;BMP280;51920;53.952;10.292;2022-10-16T00:52:56;100465.06;;;13.18
65316;BMP280;51920;53.952;10.292;2022-10-16T00:55:22;100469.75;;;13.14
65316;BMP280;51920;53.952;10.292;2022-10-16T00:57:49;100467.44;;;13.13
65316;BMP280;51920;53.952;10.292;2022-10-16T01:00:21;100468.97;;;13.14
65316;BMP280;51920;53.952;10.292;2022-10-16T01:02:59;100458.94;;;13.03
65316;BMP280;51920;53.952;10.292;2022-10-16T01:05:38;100474.09;;;13.08
65316;BMP280;51920;53.952;10.292;2022-10-16T01:08:12;100473.31;;;13.07
65316;BMP280;51920;53.952;10.292;2022-10-16T01:10:54;100459.00;;;12.96
65316;BMP280;51920;53.952;10.292;2022-10-16T01:13:31;100470.66;;;13.00
65316;BMP280;51920;53.952;10.292;2022-10-16T01:16:04;100477.19;;;13.06
65316;BMP280;51920;53.952;10.292;2022-10-16T01:18:43;100487.69;;;13.04
65316;BMP280;51920;53.952;10.292;2022-10-16T01:21:33;100479.94;;;13.03
65316;BMP280;51920;53.952;10.292;2022-10-16T01:24:27;100477.97;;;13.03
65316;BMP280;51920;53.952;10.292;2022-10-16T01:27:26;100480.34;;;13.01
65316;BMP280;51920;53.952;10.292;2022-10-16T01:30:01;100483.09;;;12.98
65316;BMP280;51920;53.952;10.292;2022-10-16T01:32:40;100485.41;;;12.99
65316;BMP280;51920;53.952;10.292;2022-10-16T01:35:12;100478.41;;;12.98
65316;BMP280;51920;53.952;10.292;2022-10-16T01:40:16;100482.31;;;12.97
65316;BMP280;51920;53.952;10.292;2022-10-16T01:42:48;100472.28;;;12.91
65316;BMP280;51920;53.952;10.292;2022-10-16T01:45:16;100484.72;;;12.92
65316;BMP280;51920;53.952;10.292;2022-10-16T01:47:43;100471.13;;;12.92
65316;BMP280;51920;53.952;10.292;2022-10-16T01:50:09;100479.59;;;12.97
65316;BMP280;51920;53.952;10.292;2022-10-16T01:52:37;100484.25;;;13.00
65316;BMP280;51920;53.952;10.292;2022-10-16T01:55:06;100480.75;;;12.96
65316;BMP280;51920;53.952;10.292;2022-10-16T01:57:34;100478.47;;;12.95
65316;BMP280;51920;53.952;10.292;2022-10-16T02:00:10;100475.38;;;12.93
65316;BMP280;51920;53.952;10.292;2022-10-16T02:02:41;100468.41;;;12.92
65316;BMP280;51920;53.952;10.292;2022-10-16T02:07:41;100476.13;;;12.97
65316;BMP280;51920;53.952;10.292;2022-10-16T02:10:08;100476.88;;;12.97
65316;BMP280;51920;53.952;10.292;2022-10-16T02:12:35;100476.94;;;12.94
65316;BMP280;51920;53.952;10.292;2022-10-16T02:15:02;100476.16;;;12.93
65316;BMP280;51920;53.952;10.292;2022-10-16T02:17:28;100478.53;;;12.87
65316;BMP280;51920;53.952;10.292;2022-10-16T02:19:54;100475.38;;;12.89
65316;BMP280;51920;53.952;10.292;2022-10-16T02:24:53;100477.75;;;12.87
65316;BMP280;51920;53.952;10.292;2022-10-16T02:30:21;100476.25;;;12.79
65316;BMP280;51920;53.952;10.292;2022-10-16T02:32:50;100478.19;;;12.78
65316;BMP280;51920;53.952;10.292;2022-10-16T02:35:18;100472.75;;;12.78
65316;BMP280;51920;53.952;10.292;2022-10-16T02:37:46;100485.59;;;12.78
65316;BMP280;51920;53.952;10.292;2022-10-16T02:40:12;100482.50;;;12.76
65316;BMP280;51920;53.952;10.292;2022-10-16T02:42:39;100478.63;;;12.70
65316;BMP280;51920;53.952;10.292;2022-10-16T02:45:06;100490.66;;;12.76
65316;BMP280;51920;53.952;10.292;2022-10-16T02:47:32;100486.78;;;12.73
65316;BMP280;51920;53.952;10.292;2022-10-16T02:49:57;100475.50;;;12.75
65316;BMP280;51920;53.952;10.292;2022-10-16T02:52:23;100477.84;;;12.73
65316;BMP280;51920;53.952;10.292;2022-10-16T02:54:48;100484.41;;;12.75
65316;BMP280;51920;53.952;10.292;2022-10-16T02:57:14;100475.16;;;12.69
65316;BMP280;51920;53.952;10.292;2022-10-16T02:59:39;100472.09;;;12.67
65316;BMP280;51920;53.952;10.292;2022-10-16T03:02:04;100480.97;;;12.67
65316;BMP280;51920;53.952;10.292;2022-10-16T03:04:30;100476.72;;;12.66
65316;BMP280;51920;53.952;10.292;2022-10-16T03:06:55;100467.03;;;12.65
65316;BMP280;51920;53.952;10.292;2022-10-16T03:09:20;100476.75;;;12.63
65316;BMP280;51920;53.952;10.292;2022-10-16T03:11:46;100471.72;;;12.65
65316;BMP280;51920;53.952;10.292;2022-10-16T03:14:12;100476.34;;;12.61
65316;BMP280;51920;53.952;10.292;2022-10-16T03:16:38;100477.91;;;12.65
65316;BMP280;51920;53.952;10.292;2022-10-16T03:19:03;100474.81;;;12.63
65316;BMP280;51920;53.952;10.292;2022-10-16T03:21:29;100464.75;;;12.57
65316;BMP280;51920;53.952;10.292;2022-10-16T03:23:54;100455.84;;;12.56
65316;BMP280;51920;53.952;10.292;2022-10-16T03:26:20;100470.19;;;12.57
65316;BMP280;51920;53.952;10.292;2022-10-16T03:28:45;100474.50;;;12.54
65316;BMP280;51920;53.952;10.292;2022-10-16T03:31:11;100478.38;;;12.53
65316;BMP280;51920;53.952;10.292;2022-10-16T03:33:36;100486.53;;;12.53
65316;BMP280;51920;53.952;10.292;2022-10-16T03:36:02;100481.88;;;12.50
65316;BMP280;51920;53.952;10.292;2022-10-16T03:38:28;100477.63;;;12.49
65316;BMP280;51920;53.952;10.292;2022-10-16T03:40:53;100483.44;;;12.51
65316;BMP280;51920;53.952;10.292;2022-10-16T03:43:19;100483.81;;;12.50
65316;BMP280;51920;53.952;10.292;2022-10-16T03:45:44;100483.44;;;12.48
65316;BMP280;51920;53.952;10.292;2022-10-16T03:48:10;100486.94;;;12.48
65316;BMP280;51920;53.952;10.292;2022-10-16T03:50:35;100476.88;;;12.45
65316;BMP280;51920;53.952;10.292;2022-10-16T03:53:01;100486.53;;;12.53
65316;BMP280;51920;53.952;10.292;2022-10-16T03:55:27;100489.63;;;12.52
65316;BMP280;51920;53.952;10.292;2022-10-16T03:57:52;100496.66;;;12.49
65316;BMP280;51920;53.952;10.292;2022-10-16T04:00:17;100507.47;;;12.56
65316;BMP280;51920;53.952;10.292;2022-10-16T04:02:43;100503.56;;;12.54
65316;BMP280;51920;53.952;10.292;2022-10-16T04:05:08;100501.28;;;12.49
65316;BMP280;51920;53.952;10.292;2022-10-16T04:07:34;100506.72;;;12.52
65316;BMP280;51920;53.952;10.292;2022-10-16T04:09:59;100509.84;;;12.47
65316;BMP280;51920;53.952;10.292;2022-10-16T04:12:26;100507.91;;;12.48
65316;BMP280;51920;53.952;10.292;2022-10-16T04:14:52;100520.34;;;12.45
65316;BMP280;51920;53.952;10.292;2022-10-16T04:17:17;100525.34;;;12.46
65316;BMP280;51920;53.952;10.292;2022-10-16T04:19:42;100525.28;;;12.61
65316;BMP280;51920;53.952;10.292;2022-10-16T04:22:08;100535.78;;;12.59
65316;BMP280;51920;53.952;10.292;2022-10-16T04:24:33;100533.06;;;12.59
65316;BMP280;51920;53.952;10.292;2022-10-16T04:26:59;100529.59;;;12.58
65316;BMP280;51920;53.952;10.292;2022-10-16T04:29:25;100521.47;;;12.51
65316;BMP280;51920;53.952;10.292;2022-10-16T04:31:50;100528.84;;;12.51
65316;BMP280;51920;53.952;10.292;2022-10-16T04:34:15;100539.34;;;12.45
65316;BMP280;51920;53.952;10.292;2022-10-16T04:36:41;100541.69;;;12.43
65316;BMP280;51920;53.952;10.292;2022-10-16T04:39:06;100547.50;;;12.45
65316;BMP280;51920;53.952;10.292;2022-10-16T04:41:32;100537.03;;;12.40
65316;BMP280;51920;53.952;10.292;2022-10-16T04:43:57;100540.56;;;12.37
65316;BMP280;51920;53.952;10.292;2022-10-16T04:46:23;100546.38;;;12.35
65316;BMP280;51920;53.952;10.292;2022-10-16T04:48:48;100542.13;;;12.31
65316;BMP280;51920;53.952;10.292;2022-10-16T04:51:13;100548.75;;;12.30
65316;BMP280;51920;53.952;10.292;2022-10-16T04:53:39;100544.84;;;12.31
65316;BMP280;51920;53.952;10.292;2022-10-16T04:56:04;100538.66;;;12.27
65316;BMP280;51920;53.952;10.292;2022-10-16T04:58:30;100545.66;;;12.28
65316;BMP280;51920;53.952;10.292;2022-10-16T05:00:55;100541.75;;;12.29
65316;BMP280;51920;53.952;10.292;2022-10-16T05:03:21;100561.94;;;12.31
65316;BMP280;51920;53.952;10.292;2022-10-16T05:05:46;100556.47;;;12.35
65316;BMP280;51920;53.952;10.292;2022-10-16T05:08:13;100562.72;;;12.32
65316;BMP280;51920;53.952;10.292;2022-10-16T05:10:39;100561.94;;;12.28
65316;BMP280;51920;53.952;10.292;2022-10-16T05:13:04;100551.88;;;12.24
65316;BMP280;51920;53.952;10.292;2022-10-16T05:15:29;100553.75;;;12.35
65316;BMP280;51920;53.952;10.292;2022-10-16T05:17:55;100554.53;;;12.35
65316;BMP280;51920;53.952;10.292;2022-10-16T05:20:22;100565.00;;;12.37
65316;BMP280;51920;53.952;10.292;2022-10-16T05:22:47;100563.47;;;12.32
65316;BMP280;51920;53.952;10.292;2022-10-16T05:25:13;100565.78;;;12.34
65316;BMP280;51920;53.952;10.292;2022-10-16T05:27:38;100561.13;;;12.38
65316;BMP280;51920;53.952;10.292;2022-10-16T05:30:04;100569.63;;;12.40
65316;BMP280;51920;53.952;10.292;2022-10-16T05:32:30;100567.31;;;12.42
65316;BMP280;51920;53.952;10.292;2022-10-16T05:34:55;100575.84;;;12.44
65316;BMP280;51920;53.952;10.292;2022-10-16T05:37:21;100582.00;;;12.48
65316;BMP280;51920;53.952;10.292;2022-10-16T05:39:46;100592.50;;;12.53
65316;BMP280;51920;53.952;10.292;2022-10-16T05:42:12;100590.47;;;12.61
65316;BMP280;51920;53.952;10.292;2022-10-16T05:44:37;100585.84;;;12.61
65316;BMP280;51920;53.952;10.292;2022-10-16T05:47:03;100598.25;;;12.62
65316;BMP280;51920;53.952;10.292;2022-10-16T05:49:28;100595.91;;;12.64
65316;BMP280;51920;53.952;10.292;2022-10-16T05:51:54;100591.66;;;12.63
65316;BMP280;51920;53.952;10.292;2022-10-16T05:54:19;100603.66;;;12.73
65316;BMP280;51920;53.952;10.292;2022-10-16T05:56:44;100602.88;;;12.73
65316;BMP280;51920;53.952;10.292;2022-10-16T05:59:10;100601.31;;;12.68
65316;BMP280;51920;53.952;10.292;2022-10-16T06:01:35;100613.38;;;12.71
65316;BMP280;51920;53.952;10.292;2022-10-16T06:04:01;100599.81;;;12.67
65316;BMP280;51920;53.952;10.292;2022-10-16T06:06:28;100601.34;;;12.64
65316;BMP280;51920;53.952;10.292;2022-10-16T06:08:54;100611.06;;;12.65
65316;BMP280;51920;53.952;10.292;2022-10-16T06:11:22;100609.88;;;12.63
65316;BMP280;51920;53.952;10.292;2022-10-16T06:13:52;100615.34;;;12.59
65316;BMP280;51920;53.952;10.292;2022-10-16T06:16:18;100623.09;;;12.64
65316;BMP280;51920;53.952;10.292;2022-10-16T06:18:43;100616.84;;;12.67
65316;BMP280;51920;53.952;10.292;2022-10-16T06:21:17;100623.84;;;12.68
65316;BMP280;51920;53.952;10.292;2022-10-16T06:23:42;100609.50;;;12.64
65316;BMP280;51920;53.952;10.292;2022-10-16T06:26:10;100616.09;;;12.71
65316;BMP280;51920;53.952;10.292;2022-10-16T06:28:35;100612.94;;;12.76
65316;BMP280;51920;53.952;10.292;2022-10-16T06:31:03;100616.84;;;12.71
65316;BMP280;51920;53.952;10.292;2022-10-16T06:33:28;100619.19;;;12.73
65316;BMP280;51920;53.952;10.292;2022-10-16T06:36:00;100618.41;;;12.72
65316;BMP280;51920;53.952;10.292;2022-10-16T06:38:25;100618.81;;;12.71
65316;BMP280;51920;53.952;10.292;2022-10-16T06:40:53;100619.91;;;12.77
65316;BMP280;51920;53.952;10.292;2022-10-16T06:43:18;100626.16;;;12.77
65316;BMP280;51920;53.952;10.292;2022-10-16T06:45:59;100621.09;;;12.79
65316;BMP280;51920;53.952;10.292;2022-10-16T06:48:25;100630.38;;;12.82
65316;BMP280;51920;53.952;10.292;2022-10-16T06:50:56;100641.59;;;12.91
65316;BMP280;51920;53.952;10.292;2022-10-16T06:53:22;100636.91;;;12.95
65316;BMP280;51920;53.952;10.292;2022-10-16T06:55:48;100643.13;;;12.99
65316;BMP280;51920;53.952;10.292;2022-10-16T06:58:13;100640.34;;;13.06
65316;BMP280;51920;53.952;10.292;2022-10-16T07:00:38;100643.81;;;13.10
65316;BMP280;51920;53.952;10.292;2022-10-16T07:03:04;100653.09;;;13.17
65316;BMP280;51920;53.952;10.292;2022-10-16T07:05:29;100671.75;;;13.18
65316;BMP280;51920;53.952;10.292;2022-10-16T07:07:55;100667.06;;;13.22
65316;BMP280;51920;53.952;10.292;2022-10-16T07:10:20;100665.44;;;13.32
65316;BMP280;51920;53.952;10.292;2022-10-16T07:12:49;100671.19;;;13.45
65316;BMP280;51920;53.952;10.292;2022-10-16T07:15:15;100675.72;;;13.62
65316;BMP280;51920;53.952;10.292;2022-10-16T07:17:40;100686.88;;;13.75
65316;BMP280;51920;53.952;10.292;2022-10-16T07:20:06;100682.13;;;13.86
65316;BMP280;51920;53.952;10.292;2022-10-16T07:22:31;100675.75;;;14.00
65316;BMP280;51920;53.952;10.292;2022-10-16T07:24:57;100674.91;;;14.10
65316;BMP280;51920;53.952;10.292;2022-10-16T07:27:23;100674.47;;;14.15
65316;BMP280;51920;53.952;10.292;2022-10-16T07:29:49;100692.66;;;14.22
65316;BMP280;51920;53.952;10.292;2022-10-16T07:32:14;100692.22;;;14.27
65316;BMP280;51920;53.952;10.292;2022-10-16T07:34:40;100690.53;;;14.41
65316;BMP280;51920;53.952;10.292;2022-10-16T07:37:05;100693.19;;;14.48
65316;BMP280;51920;53.952;10.292;2022-10-16T07:39:31;100700.13;;;14.52
65316;BMP280;51920;53.952;10.292;2022-10-16T07:41:56;100696.25;;;14.50
65316;BMP280;51920;53.952;10.292;2022-10-16T07:44:22;100707.59;;;14.48
65316;BMP280;51920;53.952;10.292;2022-10-16T07:46:47;100702.16;;;14.45
65316;BMP280;51920;53.952;10.292;2022-10-16T07:49:12;100702.53;;;14.47
65316;BMP280;51920;53.952;10.292;2022-10-16T07:51:38;100709.53;;;14.48
65316;BMP280;51920;53.952;10.292;2022-10-16T07:54:04;100711.06;;;14.49
65316;BMP280;51920;53.952;10.292;2022-10-16T07:56:31;100717.28;;;14.53
65316;BMP280;51920;53.952;10.292;2022-10-16T07:58:57;100713.22;;;14.65
65316;BMP280;51920;53.952;10.292;2022-10-16T08:01:22;100703.81;;;14.69
65316;BMP280;51920;53.952;10.292;2022-10-16T08:03:49;100716.34;;;14.63
65316;BMP280;51920;53.952;10.292;2022-10-16T08:06:16;100714.72;;;14.69
65316;BMP280;51920;53.952;10.292;2022-10-16T08:08:42;100718.06;;;14.84
65316;BMP280;51920;53.952;10.292;2022-10-16T08:11:08;100722.38;;;15.09
65316;BMP280;51920;53.952;10.292;2022-10-16T08:13:34;100720.16;;;15.31
65316;BMP280;51920;53.952;10.292;2022-10-16T08:15:59;100726.38;;;15.82
65316;BMP280;51920;53.952;10.292;2022-10-16T08:18:25;100729.84;;;16.26
65316;BMP280;51920;53.952;10.292;2022-10-16T08:20:58;100727.25;;;16.58
65316;BMP280;51920;53.952;10.292;2022-10-16T08:23:26;100733.88;;;17.14
65316;BMP280;51920;53.952;10.292;2022-10-16T08:25:53;100728.81;;;17.12
65316;BMP280;51920;53.952;10.292;2022-10-16T08:28:19;100729.88;;;17.51
65316;BMP280;51920;53.952;10.292;2022-10-16T08:30:45;100736.84;;;17.85
65316;BMP280;51920;53.952;10.292;2022-10-16T08:33:10;100731.97;;;17.92
65316;BMP280;51920;53.952;10.292;2022-10-16T08:35:36;100733.75;;;17.83
65316;BMP280;51920;53.952;10.292;2022-10-16T08:38:06;100738.56;;;17.79
65316;BMP280;51920;53.952;10.292;2022-10-16T08:40:34;100734.88;;;18.56
65316;BMP280;51920;53.952;10.292;2022-10-16T08:46:07;100744.41;;;18.52
65316;BMP280;51920;53.952;10.292;2022-10-16T08:48:47;100738.97;;;18.23
65316;BMP280;51920;53.952;10.292;2022-10-16T08:53:49;100749.16;;;19.15
65316;BMP280;51920;53.952;10.292;2022-10-16T08:56:17;100744.22;;;19.10
65316;BMP280;51920;53.952;10.292;2022-10-16T08:58:45;100745.34;;;19.00
65316;BMP280;51920;53.952;10.292;2022-10-16T09:01:13;100760.69;;;19.36
65316;BMP280;51920;53.952;10.292;2022-10-16T09:06:21;100762.19;;;19.49
65316;BMP280;51920;53.952;10.292;2022-10-16T09:09:03;100768.34;;;19.54
65316;BMP280;51920;53.952;10.292;2022-10-16T09:11:57;100760.44;;;19.43
65316;BMP280;51920;53.952;10.292;2022-10-16T09:16:59;100769.59;;;18.89
65316;BMP280;51920;53.952;10.292;2022-10-16T09:19:41;100771.56;;;19.26
65316;BMP280;51920;53.952;10.292;2022-10-16T09:22:14;100769.66;;;19.49
65316;BMP280;51920;53.952;10.292;2022-10-16T09:27:26;100771.13;;;19.15
65316;BMP280;51920;53.952;10.292;2022-10-16T09:29:51;100779.38;;;19.15
65316;BMP280;51920;53.952;10.292;2022-10-16T09:32:20;100776.50;;;18.80
65316;BMP280;51920;53.952;10.292;2022-10-16T09:34:50;100774.59;;;18.65
65316;BMP280;51920;53.952;10.292;2022-10-16T09:37:22;100774.44;;;18.97
65316;BMP280;51920;53.952;10.292;2022-10-16T09:39:53;100788.38;;;19.41
65316;BMP280;51920;53.952;10.292;2022-10-16T09:42:21;100788.22;;;19.58
65316;BMP280;51920;53.952;10.292;2022-10-16T09:44:49;100799.16;;;19.36
65316;BMP280;51920;53.952;10.292;2022-10-16T09:47:17;100793.97;;;19.38
65316;BMP280;51920;53.952;10.292;2022-10-16T09:50:00;100794.88;;;19.22
65316;BMP280;51920;53.952;10.292;2022-10-16T09:52:31;100799.47;;;19.25
65316;BMP280;51920;53.952;10.292;2022-10-16T09:55:08;100805.81;;;19.47
65316;BMP280;51920;53.952;10.292;2022-10-16T09:57:48;100807.06;;;19.81
65316;BMP280;51920;53.952;10.292;2022-10-16T10:00:16;100808.34;;;19.67
65316;BMP280;51920;53.952;10.292;2022-10-16T10:02:41;100808.38;;;19.89
65316;BMP280;51920;53.952;10.292;2022-10-16T10:05:18;100821.56;;;19.94
65316;BMP280;51920;53.952;10.292;2022-10-16T10:07:46;100814.72;;;19.64
65316;BMP280;51920;53.952;10.292;2022-10-16T10:10:30;100829.00;;;19.59
65316;BMP280;51920;53.952;10.292;2022-10-16T10:12:56;100836.00;;;19.60
65316;BMP280;51920;53.952;10.292;2022-10-16T10:15:22;100843.06;;;19.61
65316;BMP280;51920;53.952;10.292;2022-10-16T10:17:51;100842.84;;;19.56
65316;BMP280;51920;53.952;10.292;2022-10-16T10:20:26;100839.56;;;19.22
65316;BMP280;51920;53.952;10.292;2022-10-16T10:22:53;100833.44;;;19.18
65316;BMP280;51920;53.952;10.292;2022-10-16T10:33:43;100848.38;;;18.63
65316;BMP280;51920;53.952;10.292;2022-10-16T10:38:55;100840.00;;;18.53
65316;BMP280;51920;53.952;10.292;2022-10-16T10:44:18;100856.25;;;18.90
65316;BMP280;51920;53.952;10.292;2022-10-16T10:46:51;100855.22;;;18.84
65316;BMP280;51920;53.952;10.292;2022-10-16T11:00:19;100855.59;;;19.11
65316;BMP280;51920;53.952;10.292;2022-10-16T11:05:42;100856.81;;;18.68
65316;BMP280;51920;53.952;10.292;2022-10-16T11:08:39;100874.00;;;18.72
65316;BMP280;51920;53.952;10.292;2022-10-16T11:16:56;100880.19;;;18.14
65316;BMP280;51920;53.952;10.292;2022-10-16T11:19:41;100886.09;;;18.29
65316;BMP280;51920;53.952;10.292;2022-10-16T11:24:48;100881.88;;;18.70
65316;BMP280;51920;53.952;10.292;2022-10-16T11:27:24;100887.06;;;18.81
65316;BMP280;51920;53.952;10.292;2022-10-16T11:29:58;100886.69;;;18.95
65316;BMP280;51920;53.952;10.292;2022-10-16T11:32:32;100891.03;;;18.51
65316;BMP280;51920;53.952;10.292;2022-10-16T11:35:11;100894.94;;;18.50
65316;BMP280;51920;53.952;10.292;2022-10-16T11:37:42;100896.09;;;18.36
65316;BMP280;51920;53.952;10.292;2022-10-16T11:40:30;100902.69;;;18.22
65316;BMP280;51920;53.952;10.292;2022-10-16T11:43:06;100899.09;;;18.25
65316;BMP280;51920;53.952;10.292;2022-10-16T11:45:44;100907.59;;;18.47
65316;BMP280;51920;53.952;10.292;2022-10-16T11:48:33;100905.25;;;18.46
65316;BMP280;51920;53.952;10.292;2022-10-16T11:53:45;100918.13;;;18.32
65316;BMP280;51920;53.952;10.292;2022-10-16T11:56:14;100926.38;;;18.16
65316;BMP280;51920;53.952;10.292;2022-10-16T11:58:49;100927.22;;;17.97
65316;BMP280;51920;53.952;10.292;2022-10-16T12:01:43;100925.06;;;17.72
65316;BMP280;51920;53.952;10.292;2022-10-16T12:04:30;100930.88;;;17.74
65316;BMP280;51920;53.952;10.292;2022-10-16T12:07:07;100926.81;;;17.62
65316;BMP280;51920;53.952;10.292;2022-10-16T12:09:39;100935.41;;;17.64
65316;BMP280;51920;53.952;10.292;2022-10-16T12:12:24;100936.34;;;17.57
65316;BMP280;51920;53.952;10.292;2022-10-16T12:15:00;100939.56;;;17.52
65316;BMP280;51920;53.952;10.292;2022-10-16T12:17:35;100946.53;;;17.37
65316;BMP280;51920;53.952;10.292;2022-10-16T12:20:20;100943.03;;;17.36
65316;BMP280;51920;53.952;10.292;2022-10-16T12:22:54;100956.50;;;17.47
65316;BMP280;51920;53.952;10.292;2022-10-16T12:25:25;100965.56;;;17.44
65316;BMP280;51920;53.952;10.292;2022-10-16T12:27:56;100970.94;;;17.31
65316;BMP280;51920;53.952;10.292;2022-10-16T12:30:23;100965.56;;;17.44
65316;BMP280;51920;53.952;10.292;2022-10-16T12:32:54;100965.56;;;17.44
65316;BMP280;51920;53.952;10.292;2022-10-16T12:35:23;100945.00;;;17.56
65316;BMP280;51920;53.952;10.292;2022-10-16T12:37:49;100960.75;;;17.68
65316;BMP280;51920;53.952;10.292;2022-10-16T12:40:25;100972.56;;;17.65
65316;BMP280;51920;53.952;10.292;2022-10-16T12:42:51;100980.22;;;17.74
65316;BMP280;51920;53.952;10.292;2022-10-16T12:45:32;100973.56;;;17.75
65316;BMP280;51920;53.952;10.292;2022-10-16T12:48:01;100987.53;;;17.80
65316;BMP280;51920;53.952;10.292;2022-10-16T12:50:31;100976.41;;;18.04
65316;BMP280;51920;53.952;10.292;2022-10-16T12:52:59;100981.13;;;18.03
65316;BMP280;51920;53.952;10.292;2022-10-16T12:55:26;100982.81;;;17.97
65316;BMP280;51920;53.952;10.292;2022-10-16T12:58:14;100992.59;;;17.98
65316;BMP280;51920;53.952;10.292;2022-10-16T13:00:45;101009.09;;;17.78
65316;BMP280;51920;53.952;10.292;2022-10-16T13:08:46;101018.66;;;17.50
65316;BMP280;51920;53.952;10.292;2022-10-16T13:18:58;101038.66;;;17.67
65316;BMP280;51920;53.952;10.292;2022-10-16T13:26:31;101042.16;;;17.67
65316;BMP280;51920;53.952;10.292;2022-10-16T13:29:01;101034.25;;;17.73
65316;BMP280;51920;53.952;10.292;2022-10-16T13:31:28;101034.66;;;17.72
65316;BMP280;51920;53.952;10.292;2022-10-16T13:33:56;101048.13;;;17.82
65316;BMP280;51920;53.952;10.292;2022-10-16T13:36:28;101059.31;;;17.72
65316;BMP280;51920;53.952;10.292;2022-10-16T13:39:06;101071.53;;;17.67
65316;BMP280;51920;53.952;10.292;2022-10-16T13:41:34;101074.06;;;17.58
65316;BMP280;51920;53.952;10.292;2022-10-16T13:44:00;101081.66;;;17.50
65316;BMP280;51920;53.952;10.292;2022-10-16T13:46:27;101090.50;;;17.58
65316;BMP280;51920;53.952;10.292;2022-10-16T13:49:00;101089.09;;;17.50
65316;BMP280;51920;53.952;10.292;2022-10-16T13:51:27;101094.34;;;17.40
65316;BMP280;51920;53.952;10.292;2022-10-16T13:53:55;101094.69;;;17.42
65316;BMP280;51920;53.952;10.292;2022-10-16T13:56:24;101101.03;;;17.39
65316;BMP280;51920;53.952;10.292;2022-10-16T13:59:04;101110.44;;;17.38
65316;BMP280;51920;53.952;10.292;2022-10-16T14:01:35;101108.09;;;17.37
65316;BMP280;51920;53.952;10.292;2022-10-16T14:04:08;101108.16;;;17.33
65316;BMP280;51920;53.952;10.292;2022-10-16T14:06:35;101109.84;;;17.27
65316;BMP280;51920;53.952;10.292;2022-10-16T14:09:07;101111.47;;;17.24
65316;BMP280;51920;53.952;10.292;2022-10-16T14:11:42;101117.03;;;17.17
65316;BMP280;51920;53.952;10.292;2022-10-16T14:14:11;101112.94;;;17.06
65316;BMP280;51920;53.952;10.292;2022-10-16T14:16:40;101128.31;;;16.99
65316;BMP280;51920;53.952;10.292;2022-10-16T14:19:18;101123.75;;;16.89
65316;BMP280;51920;53.952;10.292;2022-10-16T14:21:44;101129.25;;;16.89
65316;BMP280;51920;53.952;10.292;2022-10-16T14:24:13;101130.59;;;16.77
65316;BMP280;51920;53.952;10.292;2022-10-16T14:26:47;101136.16;;;16.70
65316;BMP280;51920;53.952;10.292;2022-10-16T14:29:17;101142.09;;;16.65
65316;BMP280;51920;53.952;10.292;2022-10-16T14:31:57;101136.69;;;16.62
65316;BMP280;51920;53.952;10.292;2022-10-16T14:34:53;101141.41;;;16.57
65316;BMP280;51920;53.952;10.292;2022-10-16T14:37:26;101146.97;;;16.50
65316;BMP280;51920;53.952;10.292;2022-10-16T14:39:53;101143.88;;;16.48
65316;BMP280;51920;53.952;10.292;2022-10-16T14:42:21;101149.78;;;16.43
65316;BMP280;51920;53.952;10.292;2022-10-16T14:44:50;101158.84;;;16.40
65316;BMP280;51920;53.952;10.292;2022-10-16T14:47:21;101167.50;;;16.35
65316;BMP280;51920;53.952;10.292;2022-10-16T14:49:51;101162.09;;;16.31
65316;BMP280;51920;53.952;10.292;2022-10-16T14:52:17;101176.97;;;16.27
65316;BMP280;51920;53.952;10.292;2022-10-16T14:54:43;101166.41;;;16.29
65316;BMP280;51920;53.952;10.292;2022-10-16T14:57:18;101172.91;;;16.42
65316;BMP280;51920;53.952;10.292;2022-10-16T14:59:44;101168.28;;;16.35
65316;BMP280;51920;53.952;10.292;2022-10-16T15:02:25;101179.25;;;16.32
65316;BMP280;51920;53.952;10.292;2022-10-16T15:04:52;101175.41;;;16.26
65316;BMP280;51920;53.952;10.292;2022-10-16T15:07:17;101169.13;;;16.29
65316;BMP280;51920;53.952;10.292;2022-10-16T15:09:43;101176.22;;;16.26
65316;BMP280;51920;53.952;10.292;2022-10-16T15:12:08;101171.59;;;16.20
65316;BMP280;51920;53.952;10.292;2022-10-16T15:14:34;101179.81;;;16.16
65316;BMP280;51920;53.952;10.292;2022-10-16T15:16:59;101181.41;;;16.13